sensor_id;sensor_type;location;lat;lon;timestamp;P1;durP1;ratioP1;P2;durP2;ratioP2
10347;SDS011;5220;43.192;23.284;2023-04-24T00:00:06;6.55;;;4.18;;
10347;SDS011;5220;43.192;23.284;2023-04-24T00:02:35;7.00;;;4.50;;
10347;SDS011;5220;43.192;23.284;2023-04-24T00:05:02;4.03;;;3.63;;
10347;SDS011;5220;43.192;23.284;2023-04-24T00:07:29;7.63;;;4.97;;
10347;SDS011;5220;43.192;23.284;2023-04-24T00:09:56;8.38;;;4.78;;
10347;SDS011;5220;43.192;23.284;2023-04-24T00:12:23;5.88;;;4.30;;
10347;SDS011;5220;43.192;23.284;2023-04-24T00:14:51;10.27;;;5.13;;
10347;SDS011;5220;43.192;23.284;2023-04-24T00:17:18;6.18;;;4.38;;
10347;SDS011;5220;43.192;23.284;2023-04-24T00:19:46;7.47;;;5.00;;
10347;SDS011;5220;43.192;23.284;2023-04-24T00:22:12;11.23;;;5.05;;
10347;SDS011;5220;43.192;23.284;2023-04-24T00:24:40;4.25;;;3.80;;
10347;SDS011;5220;43.192;23.284;2023-04-24T00:27:07;9.30;;;3.85;;
10347;SDS011;5220;43.192;23.284;2023-04-24T00:29:33;8.23;;;4.72;;
10347;SDS011;5220;43.192;23.284;2023-04-24T00:32:01;5.50;;;3.78;;
10347;SDS011;5220;43.192;23.284;2023-04-24T00:34:28;7.55;;;5.20;;
10347;SDS011;5220;43.192;23.284;2023-04-24T00:36:57;6.38;;;4.70;;
10347;SDS011;5220;43.192;23.284;2023-04-24T00:39:24;4.25;;;3.78;;
10347;SDS011;5220;43.192;23.284;2023-04-24T00:41:50;6.00;;;4.20;;
10347;SDS011;5220;43.192;23.284;2023-04-24T00:44:18;6.82;;;4.88;;
10347;SDS011;5220;43.192;23.284;2023-04-24T00:46:45;15.48;;;9.63;;
10347;SDS011;5220;43.192;23.284;2023-04-24T00:49:13;11.27;;;7.03;;
10347;SDS011;5220;43.192;23.284;2023-04-24T00:51:40;12.68;;;7.57;;
10347;SDS011;5220;43.192;23.284;2023-04-24T00:54:10;12.90;;;7.78;;
10347;SDS011;5220;43.192;23.284;2023-04-24T00:56:37;15.48;;;7.63;;
10347;SDS011;5220;43.192;23.284;2023-04-24T00:59:04;10.93;;;7.47;;
10347;SDS011;5220;43.192;23.284;2023-04-24T01:01:31;14.98;;;8.50;;
10347;SDS011;5220;43.192;23.284;2023-04-24T01:03:58;11.57;;;8.13;;
10347;SDS011;5220;43.192;23.284;2023-04-24T01:06:27;15.60;;;11.35;;
10347;SDS011;5220;43.192;23.284;2023-04-24T01:08:56;7.80;;;5.50;;
10347;SDS011;5220;43.192;23.284;2023-04-24T01:11:25;9.27;;;5.75;;
10347;SDS011;5220;43.192;23.284;2023-04-24T01:13:52;10.32;;;7.40;;
10347;SDS011;5220;43.192;23.284;2023-04-24T01:16:18;9.13;;;6.72;;
10347;SDS011;5220;43.192;23.284;2023-04-24T01:18:46;10.45;;;6.38;;
10347;SDS011;5220;43.192;23.284;2023-04-24T01:21:13;7.72;;;6.10;;
10347;SDS011;5220;43.192;23.284;2023-04-24T01:23:43;9.75;;;5.95;;
10347;SDS011;5220;43.192;23.284;2023-04-24T01:26:10;8.38;;;5.63;;
10347;SDS011;5220;43.192;23.284;2023-04-24T01:28:37;4.88;;;4.22;;
10347;SDS011;5220;43.192;23.284;2023-04-24T01:31:04;4.40;;;4.00;;
10347;SDS011;5220;43.192;23.284;2023-04-24T01:33:31;5.78;;;4.18;;
10347;SDS011;5220;43.192;23.284;2023-04-24T01:35:58;5.95;;;4.18;;
10347;SDS011;5220;43.192;23.284;2023-04-24T01:38:25;6.10;;;4.22;;
10347;SDS011;5220;43.192;23.284;2023-04-24T01:40:54;5.50;;;4.03;;
10347;SDS011;5220;43.192;23.284;2023-04-24T01:43:20;6.38;;;4.90;;
10347;SDS011;5220;43.192;23.284;2023-04-24T01:45:48;6.78;;;4.50;;
10347;SDS011;5220;43.192;23.284;2023-04-24T01:48:14;7.97;;;4.40;;
10347;SDS011;5220;43.192;23.284;2023-04-24T01:50:41;5.00;;;4.50;;
10347;SDS011;5220;43.192;23.284;2023-04-24T01:53:08;9.45;;;4.68;;
10347;SDS011;5220;43.192;23.284;2023-04-24T01:55:35;6.03;;;4.75;;
10347;SDS011;5220;43.192;23.284;2023-04-24T01:58:03;8.65;;;4.80;;
10347;SDS011;5220;43.192;23.284;2023-04-24T02:00:29;6.32;;;4.47;;
10347;SDS011;5220;43.192;23.284;2023-04-24T02:02:56;7.18;;;4.55;;
10347;SDS011;5220;43.192;23.284;2023-04-24T02:05:23;6.32;;;4.95;;
10347;SDS011;5220;43.192;23.284;2023-04-24T02:07:49;5.68;;;4.97;;
10347;SDS011;5220;43.192;23.284;2023-04-24T02:10:16;10.25;;;4.82;;
10347;SDS011;5220;43.192;23.284;2023-04-24T02:12:43;5.28;;;4.32;;
10347;SDS011;5220;43.192;23.284;2023-04-24T02:15:11;8.00;;;4.97;;
10347;SDS011;5220;43.192;23.284;2023-04-24T02:17:38;5.88;;;5.13;;
10347;SDS011;5220;43.192;23.284;2023-04-24T02:20:05;6.15;;;4.97;;
10347;SDS011;5220;43.192;23.284;2023-04-24T02:22:33;9.57;;;5.25;;
10347;SDS011;5220;43.192;23.284;2023-04-24T02:25:00;6.32;;;5.20;;
10347;SDS011;5220;43.192;23.284;2023-04-24T02:27:26;8.90;;;4.65;;
10347;SDS011;5220;43.192;23.284;2023-04-24T02:29:53;5.25;;;4.40;;
10347;SDS011;5220;43.192;23.284;2023-04-24T02:32:21;7.72;;;5.00;;
10347;SDS011;5220;43.192;23.284;2023-04-24T02:34:48;9.10;;;5.82;;
10347;SDS011;5220;43.192;23.284;2023-04-24T02:37:15;6.30;;;5.60;;
10347;SDS011;5220;43.192;23.284;2023-04-24T02:39:41;6.28;;;5.35;;
10347;SDS011;5220;43.192;23.284;2023-04-24T02:42:09;13.73;;;6.22;;
10347;SDS011;5220;43.192;23.284;2023-04-24T02:44:36;9.32;;;5.50;;
10347;SDS011;5220;43.192;23.284;2023-04-24T02:47:02;6.50;;;5.65;;
10347;SDS011;5220;43.192;23.284;2023-04-24T02:49:31;10.98;;;5.68;;
10347;SDS011;5220;43.192;23.284;2023-04-24T02:51:57;7.63;;;4.82;;
10347;SDS011;5220;43.192;23.284;2023-04-24T02:54:24;6.50;;;5.18;;
10347;SDS011;5220;43.192;23.284;2023-04-24T02:56:51;5.13;;;4.63;;
10347;SDS011;5220;43.192;23.284;2023-04-24T02:59:17;9.23;;;6.90;;
10347;SDS011;5220;43.192;23.284;2023-04-24T03:01:44;14.15;;;9.70;;
10347;SDS011;5220;43.192;23.284;2023-04-24T03:04:11;11.18;;;8.73;;
10347;SDS011;5220;43.192;23.284;2023-04-24T03:06:39;11.95;;;8.20;;
10347;SDS011;5220;43.192;23.284;2023-04-24T03:09:05;13.82;;;10.07;;
10347;SDS011;5220;43.192;23.284;2023-04-24T03:11:32;13.98;;;9.98;;
10347;SDS011;5220;43.192;23.284;2023-04-24T03:13:59;9.23;;;8.25;;
10347;SDS011;5220;43.192;23.284;2023-04-24T03:16:25;15.25;;;9.43;;
10347;SDS011;5220;43.192;23.284;2023-04-24T03:18:52;11.20;;;9.10;;
10347;SDS011;5220;43.192;23.284;2023-04-24T03:21:19;13.27;;;8.45;;
10347;SDS011;5220;43.192;23.284;2023-04-24T03:23:47;12.82;;;8.50;;
10347;SDS011;5220;43.192;23.284;2023-04-24T03:26:14;11.90;;;8.85;;
10347;SDS011;5220;43.192;23.284;2023-04-24T03:28:40;13.00;;;9.75;;
10347;SDS011;5220;43.192;23.284;2023-04-24T03:31:07;11.93;;;9.27;;
10347;SDS011;5220;43.192;23.284;2023-04-24T03:33:34;12.93;;;9.52;;
10347;SDS011;5220;43.192;23.284;2023-04-24T03:36:01;13.02;;;8.45;;
10347;SDS011;5220;43.192;23.284;2023-04-24T03:38:27;12.77;;;8.93;;
10347;SDS011;5220;43.192;23.284;2023-04-24T03:40:55;9.52;;;7.32;;
10347;SDS011;5220;43.192;23.284;2023-04-24T03:43:22;12.05;;;8.85;;
10347;SDS011;5220;43.192;23.284;2023-04-24T03:45:49;9.05;;;7.13;;
10347;SDS011;5220;43.192;23.284;2023-04-24T03:48:16;15.45;;;9.40;;
10347;SDS011;5220;43.192;23.284;2023-04-24T03:50:42;11.05;;;7.45;;
10347;SDS011;5220;43.192;23.284;2023-04-24T03:53:09;12.07;;;8.23;;
10347;SDS011;5220;43.192;23.284;2023-04-24T03:55:36;14.85;;;8.55;;
10347;SDS011;5220;43.192;23.284;2023-04-24T03:58:04;11.57;;;8.40;;
10347;SDS011;5220;43.192;23.284;2023-04-24T04:00:31;13.00;;;7.85;;
10347;SDS011;5220;43.192;23.284;2023-04-24T04:02:59;11.85;;;8.25;;
10347;SDS011;5220;43.192;23.284;2023-04-24T04:05:26;8.35;;;5.93;;
10347;SDS011;5220;43.192;23.284;2023-04-24T04:07:53;8.35;;;6.00;;
10347;SDS011;5220;43.192;23.284;2023-04-24T04:10:20;10.07;;;6.07;;
10347;SDS011;5220;43.192;23.284;2023-04-24T04:12:47;8.65;;;5.78;;
10347;SDS011;5220;43.192;23.284;2023-04-24T04:15:15;8.88;;;7.45;;
10347;SDS011;5220;43.192;23.284;2023-04-24T04:17:42;14.98;;;10.48;;
10347;SDS011;5220;43.192;23.284;2023-04-24T04:20:09;11.70;;;9.00;;
10347;SDS011;5220;43.192;23.284;2023-04-24T04:22:36;9.73;;;7.55;;
10347;SDS011;5220;43.192;23.284;2023-04-24T04:25:03;12.55;;;7.70;;
10347;SDS011;5220;43.192;23.284;2023-04-24T04:27:31;8.93;;;7.95;;
10347;SDS011;5220;43.192;23.284;2023-04-24T04:29:58;23.58;;;11.07;;
10347;SDS011;5220;43.192;23.284;2023-04-24T04:32:27;15.75;;;10.60;;
10347;SDS011;5220;43.192;23.284;2023-04-24T04:34:54;14.98;;;9.95;;
10347;SDS011;5220;43.192;23.284;2023-04-24T04:37:21;15.10;;;9.98;;
10347;SDS011;5220;43.192;23.284;2023-04-24T04:39:47;26.60;;;14.52;;
10347;SDS011;5220;43.192;23.284;2023-04-24T04:42:14;24.90;;;11.77;;
10347;SDS011;5220;43.192;23.284;2023-04-24T04:44:41;16.00;;;10.18;;
10347;SDS011;5220;43.192;23.284;2023-04-24T04:47:07;17.05;;;9.82;;
10347;SDS011;5220;43.192;23.284;2023-04-24T04:49:37;14.48;;;8.90;;
10347;SDS011;5220;43.192;23.284;2023-04-24T04:52:04;21.60;;;11.52;;
10347;SDS011;5220;43.192;23.284;2023-04-24T04:54:31;22.48;;;12.52;;
10347;SDS011;5220;43.192;23.284;2023-04-24T04:56:57;20.90;;;11.15;;
10347;SDS011;5220;43.192;23.284;2023-04-24T04:59:25;21.27;;;10.57;;
10347;SDS011;5220;43.192;23.284;2023-04-24T05:01:52;11.45;;;9.02;;
10347;SDS011;5220;43.192;23.284;2023-04-24T05:04:19;9.27;;;7.55;;
10347;SDS011;5220;43.192;23.284;2023-04-24T05:06:47;12.63;;;8.05;;
10347;SDS011;5220;43.192;23.284;2023-04-24T05:09:13;13.90;;;7.85;;
10347;SDS011;5220;43.192;23.284;2023-04-24T05:11:40;11.90;;;7.93;;
10347;SDS011;5220;43.192;23.284;2023-04-24T05:14:07;11.60;;;7.50;;
10347;SDS011;5220;43.192;23.284;2023-04-24T05:16:33;6.93;;;6.28;;
10347;SDS011;5220;43.192;23.284;2023-04-24T05:19:01;9.43;;;6.57;;
10347;SDS011;5220;43.192;23.284;2023-04-24T05:21:28;7.15;;;6.45;;
10347;SDS011;5220;43.192;23.284;2023-04-24T05:23:57;8.45;;;6.32;;
10347;SDS011;5220;43.192;23.284;2023-04-24T05:26:23;11.88;;;8.88;;
10347;SDS011;5220;43.192;23.284;2023-04-24T05:28:50;15.60;;;9.48;;
10347;SDS011;5220;43.192;23.284;2023-04-24T05:31:17;13.55;;;9.48;;
10347;SDS011;5220;43.192;23.284;2023-04-24T05:33:43;10.27;;;8.00;;
10347;SDS011;5220;43.192;23.284;2023-04-24T05:36:10;10.68;;;8.05;;
10347;SDS011;5220;43.192;23.284;2023-04-24T05:38:37;13.45;;;8.05;;
10347;SDS011;5220;43.192;23.284;2023-04-24T05:41:05;11.60;;;7.88;;
10347;SDS011;5220;43.192;23.284;2023-04-24T05:43:32;9.52;;;6.65;;
10347;SDS011;5220;43.192;23.284;2023-04-24T05:45:58;13.77;;;9.68;;
10347;SDS011;5220;43.192;23.284;2023-04-24T05:48:25;16.55;;;11.68;;
10347;SDS011;5220;43.192;23.284;2023-04-24T05:50:52;15.73;;;11.05;;
10347;SDS011;5220;43.192;23.284;2023-04-24T05:53:19;10.98;;;8.50;;
10347;SDS011;5220;43.192;23.284;2023-04-24T05:55:45;10.20;;;8.15;;
10347;SDS011;5220;43.192;23.284;2023-04-24T05:58:15;9.70;;;7.50;;
10347;SDS011;5220;43.192;23.284;2023-04-24T06:00:41;8.35;;;6.65;;
10347;SDS011;5220;43.192;23.284;2023-04-24T06:03:08;7.75;;;6.57;;
10347;SDS011;5220;43.192;23.284;2023-04-24T06:05:35;9.35;;;7.32;;
10347;SDS011;5220;43.192;23.284;2023-04-24T06:08:01;10.27;;;6.30;;
10347;SDS011;5220;43.192;23.284;2023-04-24T06:10:28;10.57;;;6.25;;
10347;SDS011;5220;43.192;23.284;2023-04-24T06:12:55;9.23;;;7.03;;
10347;SDS011;5220;43.192;23.284;2023-04-24T06:15:27;11.27;;;9.65;;
10347;SDS011;5220;43.192;23.284;2023-04-24T06:17:55;18.55;;;12.38;;
10347;SDS011;5220;43.192;23.284;2023-04-24T06:20:22;16.70;;;13.25;;
10347;SDS011;5220;43.192;23.284;2023-04-24T06:22:49;16.65;;;13.25;;
10347;SDS011;5220;43.192;23.284;2023-04-24T06:25:16;16.60;;;13.15;;
10347;SDS011;5220;43.192;23.284;2023-04-24T06:27:43;18.00;;;13.52;;
10347;SDS011;5220;43.192;23.284;2023-04-24T06:30:10;18.23;;;13.65;;
10347;SDS011;5220;43.192;23.284;2023-04-24T06:32:38;17.15;;;12.70;;
10347;SDS011;5220;43.192;23.284;2023-04-24T06:35:06;13.15;;;9.15;;
10347;SDS011;5220;43.192;23.284;2023-04-24T06:37:34;10.25;;;8.35;;
10347;SDS011;5220;43.192;23.284;2023-04-24T06:40:01;12.75;;;7.88;;
10347;SDS011;5220;43.192;23.284;2023-04-24T06:42:28;10.98;;;6.55;;
10347;SDS011;5220;43.192;23.284;2023-04-24T06:44:55;7.80;;;6.03;;
10347;SDS011;5220;43.192;23.284;2023-04-24T06:47:21;8.07;;;6.47;;
10347;SDS011;5220;43.192;23.284;2023-04-24T06:49:50;7.93;;;5.78;;
10347;SDS011;5220;43.192;23.284;2023-04-24T06:52:17;12.35;;;6.50;;
10347;SDS011;5220;43.192;23.284;2023-04-24T06:54:44;9.35;;;6.35;;
10347;SDS011;5220;43.192;23.284;2023-04-24T06:57:11;7.00;;;6.30;;
10347;SDS011;5220;43.192;23.284;2023-04-24T06:59:38;9.77;;;7.38;;
10347;SDS011;5220;43.192;23.284;2023-04-24T07:02:04;5.72;;;4.38;;
10347;SDS011;5220;43.192;23.284;2023-04-24T07:04:31;9.00;;;5.72;;
10347;SDS011;5220;43.192;23.284;2023-04-24T07:06:59;5.70;;;4.85;;
10347;SDS011;5220;43.192;23.284;2023-04-24T07:09:26;6.22;;;5.43;;
10347;SDS011;5220;43.192;23.284;2023-04-24T07:11:53;6.60;;;5.90;;
10347;SDS011;5220;43.192;23.284;2023-04-24T07:14:21;9.88;;;5.38;;
10347;SDS011;5220;43.192;23.284;2023-04-24T07:16:48;5.35;;;4.55;;
10347;SDS011;5220;43.192;23.284;2023-04-24T07:19:15;5.50;;;4.50;;
10347;SDS011;5220;43.192;23.284;2023-04-24T07:21:42;6.57;;;4.47;;
10347;SDS011;5220;43.192;23.284;2023-04-24T07:24:10;6.38;;;4.68;;
10347;SDS011;5220;43.192;23.284;2023-04-24T07:26:38;4.90;;;4.20;;
10347;SDS011;5220;43.192;23.284;2023-04-24T07:29:05;6.05;;;4.55;;
10347;SDS011;5220;43.192;23.284;2023-04-24T07:31:32;5.10;;;4.70;;
10347;SDS011;5220;43.192;23.284;2023-04-24T07:33:59;4.68;;;4.05;;
10347;SDS011;5220;43.192;23.284;2023-04-24T07:36:25;5.38;;;4.15;;
10347;SDS011;5220;43.192;23.284;2023-04-24T07:38:53;5.78;;;5.15;;
10347;SDS011;5220;43.192;23.284;2023-04-24T07:41:21;6.10;;;4.57;;
10347;SDS011;5220;43.192;23.284;2023-04-24T07:43:49;7.47;;;4.65;;
10347;SDS011;5220;43.192;23.284;2023-04-24T07:46:16;6.40;;;5.65;;
10347;SDS011;5220;43.192;23.284;2023-04-24T07:48:43;5.20;;;4.53;;
10347;SDS011;5220;43.192;23.284;2023-04-24T07:51:11;4.93;;;4.40;;
10347;SDS011;5220;43.192;23.284;2023-04-24T07:53:38;6.15;;;4.78;;
10347;SDS011;5220;43.192;23.284;2023-04-24T07:56:05;6.45;;;5.70;;
10347;SDS011;5220;43.192;23.284;2023-04-24T07:58:33;8.50;;;5.82;;
10347;SDS011;5220;43.192;23.284;2023-04-24T08:01:00;6.00;;;5.03;;
10347;SDS011;5220;43.192;23.284;2023-04-24T08:03:27;7.68;;;5.18;;
10347;SDS011;5220;43.192;23.284;2023-04-24T08:05:54;5.93;;;5.20;;
10347;SDS011;5220;43.192;23.284;2023-04-24T08:08:21;6.15;;;5.45;;
10347;SDS011;5220;43.192;23.284;2023-04-24T08:10:48;6.60;;;5.78;;
10347;SDS011;5220;43.192;23.284;2023-04-24T08:13:15;7.63;;;5.75;;
10347;SDS011;5220;43.192;23.284;2023-04-24T08:15:43;6.28;;;4.90;;
10347;SDS011;5220;43.192;23.284;2023-04-24T08:18:10;6.07;;;5.03;;
10347;SDS011;5220;43.192;23.284;2023-04-24T08:20:38;8.48;;;7.18;;
10347;SDS011;5220;43.192;23.284;2023-04-24T08:23:05;8.98;;;7.57;;
10347;SDS011;5220;43.192;23.284;2023-04-24T08:25:32;10.43;;;9.07;;
10347;SDS011;5220;43.192;23.284;2023-04-24T08:28:00;10.13;;;9.02;;
10347;SDS011;5220;43.192;23.284;2023-04-24T08:30:28;10.68;;;8.45;;
10347;SDS011;5220;43.192;23.284;2023-04-24T08:32:56;9.65;;;7.07;;
10347;SDS011;5220;43.192;23.284;2023-04-24T08:35:23;6.50;;;5.15;;
10347;SDS011;5220;43.192;23.284;2023-04-24T08:37:50;7.18;;;5.13;;
10347;SDS011;5220;43.192;23.284;2023-04-24T08:40:16;7.43;;;6.35;;
10347;SDS011;5220;43.192;23.284;2023-04-24T08:42:43;6.68;;;5.57;;
10347;SDS011;5220;43.192;23.284;2023-04-24T08:45:11;5.20;;;4.25;;
10347;SDS011;5220;43.192;23.284;2023-04-24T08:47:38;3.55;;;3.25;;
10347;SDS011;5220;43.192;23.284;2023-04-24T08:50:08;5.05;;;3.75;;
10347;SDS011;5220;43.192;23.284;2023-04-24T08:52:35;3.90;;;3.60;;
10347;SDS011;5220;43.192;23.284;2023-04-24T08:55:02;3.70;;;3.08;;
10347;SDS011;5220;43.192;23.284;2023-04-24T08:57:30;3.72;;;3.42;;
10347;SDS011;5220;43.192;23.284;2023-04-24T08:59:58;3.85;;;3.35;;
10347;SDS011;5220;43.192;23.284;2023-04-24T09:02:26;4.05;;;3.47;;
10347;SDS011;5220;43.192;23.284;2023-04-24T09:04:54;4.10;;;3.70;;
10347;SDS011;5220;43.192;23.284;2023-04-24T09:07:23;3.88;;;3.58;;
10347;SDS011;5220;43.192;23.284;2023-04-24T09:09:51;5.85;;;4.00;;
10347;SDS011;5220;43.192;23.284;2023-04-24T09:12:19;5.07;;;3.30;;
10347;SDS011;5220;43.192;23.284;2023-04-24T09:14:46;3.40;;;2.90;;
10347;SDS011;5220;43.192;23.284;2023-04-24T09:17:15;6.20;;;3.72;;
10347;SDS011;5220;43.192;23.284;2023-04-24T09:19:41;4.18;;;2.92;;
10347;SDS011;5220;43.192;23.284;2023-04-24T09:22:09;4.20;;;3.45;;
10347;SDS011;5220;43.192;23.284;2023-04-24T09:24:37;4.05;;;3.13;;
10347;SDS011;5220;43.192;23.284;2023-04-24T09:27:05;4.80;;;3.00;;
10347;SDS011;5220;43.192;23.284;2023-04-24T09:29:31;8.02;;;6.93;;
10347;SDS011;5220;43.192;23.284;2023-04-24T09:31:58;3.38;;;3.03;;
10347;SDS011;5220;43.192;23.284;2023-04-24T09:34:26;3.08;;;2.75;;
10347;SDS011;5220;43.192;23.284;2023-04-24T09:36:53;4.28;;;3.55;;
10347;SDS011;5220;43.192;23.284;2023-04-24T09:39:20;4.50;;;3.22;;
10347;SDS011;5220;43.192;23.284;2023-04-24T09:41:49;4.95;;;3.50;;
10347;SDS011;5220;43.192;23.284;2023-04-24T09:44:17;4.63;;;3.72;;
10347;SDS011;5220;43.192;23.284;2023-04-24T09:46:48;4.82;;;3.33;;
10347;SDS011;5220;43.192;23.284;2023-04-24T09:49:16;4.90;;;3.20;;
10347;SDS011;5220;43.192;23.284;2023-04-24T09:51:48;4.45;;;3.42;;
10347;SDS011;5220;43.192;23.284;2023-04-24T09:54:15;5.93;;;4.82;;
10347;SDS011;5220;43.192;23.284;2023-04-24T09:56:45;5.43;;;4.03;;
10347;SDS011;5220;43.192;23.284;2023-04-24T09:59:14;4.75;;;3.63;;
10347;SDS011;5220;43.192;23.284;2023-04-24T10:01:41;6.03;;;5.38;;
10347;SDS011;5220;43.192;23.284;2023-04-24T10:04:16;6.68;;;3.80;;
10347;SDS011;5220;43.192;23.284;2023-04-24T10:06:44;7.25;;;3.50;;
10347;SDS011;5220;43.192;23.284;2023-04-24T10:09:12;4.00;;;3.38;;
10347;SDS011;5220;43.192;23.284;2023-04-24T10:11:41;4.93;;;3.90;;
10347;SDS011;5220;43.192;23.284;2023-04-24T10:14:10;6.57;;;4.05;;
10347;SDS011;5220;43.192;23.284;2023-04-24T10:16:40;6.57;;;5.45;;
10347;SDS011;5220;43.192;23.284;2023-04-24T10:19:08;7.22;;;4.85;;
10347;SDS011;5220;43.192;23.284;2023-04-24T10:21:36;4.30;;;3.85;;
10347;SDS011;5220;43.192;23.284;2023-04-24T10:24:07;13.48;;;11.45;;
10347;SDS011;5220;43.192;23.284;2023-04-24T10:26:35;6.03;;;4.20;;
10347;SDS011;5220;43.192;23.284;2023-04-24T10:29:02;11.15;;;10.18;;
10347;SDS011;5220;43.192;23.284;2023-04-24T10:31:34;4.32;;;3.92;;
10347;SDS011;5220;43.192;23.284;2023-04-24T10:34:04;4.63;;;4.18;;
10347;SDS011;5220;43.192;23.284;2023-04-24T10:36:32;6.53;;;5.55;;
10347;SDS011;5220;43.192;23.284;2023-04-24T10:39:00;5.15;;;3.67;;
10347;SDS011;5220;43.192;23.284;2023-04-24T10:41:29;5.43;;;3.50;;
10347;SDS011;5220;43.192;23.284;2023-04-24T10:44:06;4.88;;;3.25;;
10347;SDS011;5220;43.192;23.284;2023-04-24T10:46:33;4.45;;;4.05;;
10347;SDS011;5220;43.192;23.284;2023-04-24T10:49:00;4.25;;;3.65;;
10347;SDS011;5220;43.192;23.284;2023-04-24T10:51:44;8.70;;;7.40;;
10347;SDS011;5220;43.192;23.284;2023-04-24T10:54:21;5.70;;;4.18;;
10347;SDS011;5220;43.192;23.284;2023-04-24T10:56:49;6.07;;;5.05;;
10347;SDS011;5220;43.192;23.284;2023-04-24T10:59:23;6.32;;;3.85;;
10347;SDS011;5220;43.192;23.284;2023-04-24T11:01:52;5.60;;;3.20;;
10347;SDS011;5220;43.192;23.284;2023-04-24T11:04:29;5.18;;;3.75;;
10347;SDS011;5220;43.192;23.284;2023-04-24T11:06:57;4.00;;;3.47;;
10347;SDS011;5220;43.192;23.284;2023-04-24T11:09:26;4.78;;;3.40;;
10347;SDS011;5220;43.192;23.284;2023-04-24T11:12:02;4.53;;;3.22;;
10347;SDS011;5220;43.192;23.284;2023-04-24T11:14:31;4.93;;;3.90;;
10347;SDS011;5220;43.192;23.284;2023-04-24T11:17:31;5.82;;;3.90;;
10347;SDS011;5220;43.192;23.284;2023-04-24T11:20:04;6.70;;;3.92;;
10347;SDS011;5220;43.192;23.284;2023-04-24T11:22:33;6.20;;;3.30;;
10347;SDS011;5220;43.192;23.284;2023-04-24T11:25:01;7.35;;;3.97;;
10347;SDS011;5220;43.192;23.284;2023-04-24T11:27:29;4.55;;;2.95;;
10347;SDS011;5220;43.192;23.284;2023-04-24T11:30:00;3.00;;;2.80;;
10347;SDS011;5220;43.192;23.284;2023-04-24T11:32:28;5.32;;;3.50;;
10347;SDS011;5220;43.192;23.284;2023-04-24T11:34:56;4.65;;;3.45;;
10347;SDS011;5220;43.192;23.284;2023-04-24T11:37:26;7.03;;;4.22;;
10347;SDS011;5220;43.192;23.284;2023-04-24T11:39:54;5.05;;;4.55;;
10347;SDS011;5220;43.192;23.284;2023-04-24T11:42:22;4.13;;;3.72;;
10347;SDS011;5220;43.192;23.284;2023-04-24T11:44:51;8.90;;;4.25;;
10347;SDS011;5220;43.192;23.284;2023-04-24T11:47:20;5.22;;;4.43;;
10347;SDS011;5220;43.192;23.284;2023-04-24T11:49:54;5.85;;;5.05;;
10347;SDS011;5220;43.192;23.284;2023-04-24T11:52:21;6.85;;;5.15;;
10347;SDS011;5220;43.192;23.284;2023-04-24T11:54:49;6.15;;;5.55;;
10347;SDS011;5220;43.192;23.284;2023-04-24T11:57:16;7.75;;;5.60;;
10347;SDS011;5220;43.192;23.284;2023-04-24T11:59:45;6.32;;;5.25;;
10347;SDS011;5220;43.192;23.284;2023-04-24T12:02:19;7.90;;;5.45;;
10347;SDS011;5220;43.192;23.284;2023-04-24T12:04:47;5.97;;;5.18;;
10347;SDS011;5220;43.192;23.284;2023-04-24T12:07:14;7.30;;;5.53;;
10347;SDS011;5220;43.192;23.284;2023-04-24T12:09:41;6.03;;;5.43;;
10347;SDS011;5220;43.192;23.284;2023-04-24T12:12:10;6.53;;;5.93;;
10347;SDS011;5220;43.192;23.284;2023-04-24T12:14:47;6.68;;;6.05;;
10347;SDS011;5220;43.192;23.284;2023-04-24T12:17:15;9.43;;;6.38;;
10347;SDS011;5220;43.192;23.284;2023-04-24T12:19:45;8.85;;;6.95;;
10347;SDS011;5220;43.192;23.284;2023-04-24T12:22:13;9.85;;;7.60;;
10347;SDS011;5220;43.192;23.284;2023-04-24T12:27:28;7.57;;;6.78;;
10347;SDS011;5220;43.192;23.284;2023-04-24T12:29:56;7.93;;;7.18;;
10347;SDS011;5220;43.192;23.284;2023-04-24T12:32:24;8.20;;;7.03;;
10347;SDS011;5220;43.192;23.284;2023-04-24T12:34:51;9.30;;;7.97;;
10347;SDS011;5220;43.192;23.284;2023-04-24T12:37:19;8.20;;;7.28;;
10347;SDS011;5220;43.192;23.284;2023-04-24T12:39:58;7.93;;;7.05;;
10347;SDS011;5220;43.192;23.284;2023-04-24T12:42:28;7.75;;;6.53;;
10347;SDS011;5220;43.192;23.284;2023-04-24T12:44:58;10.65;;;7.25;;
10347;SDS011;5220;43.192;23.284;2023-04-24T12:47:28;7.07;;;6.47;;
10347;SDS011;5220;43.192;23.284;2023-04-24T12:49:55;11.15;;;7.10;;
10347;SDS011;5220;43.192;23.284;2023-04-24T12:52:22;7.05;;;6.35;;
10347;SDS011;5220;43.192;23.284;2023-04-24T12:54:52;10.25;;;8.40;;
10347;SDS011;5220;43.192;23.284;2023-04-24T12:57:20;10.48;;;7.93;;
10347;SDS011;5220;43.192;23.284;2023-04-24T12:59:48;7.15;;;6.40;;
10347;SDS011;5220;43.192;23.284;2023-04-24T13:02:15;7.15;;;6.45;;
10347;SDS011;5220;43.192;23.284;2023-04-24T13:04:44;6.78;;;6.13;;
10347;SDS011;5220;43.192;23.284;2023-04-24T13:07:12;9.70;;;6.68;;
10347;SDS011;5220;43.192;23.284;2023-04-24T13:09:39;8.48;;;6.38;;
10347;SDS011;5220;43.192;23.284;2023-04-24T13:12:06;6.63;;;5.80;;
10347;SDS011;5220;43.192;23.284;2023-04-24T13:14:33;7.22;;;6.53;;
10347;SDS011;5220;43.192;23.284;2023-04-24T13:17:01;23.90;;;19.38;;
10347;SDS011;5220;43.192;23.284;2023-04-24T13:19:29;7.05;;;5.93;;
10347;SDS011;5220;43.192;23.284;2023-04-24T13:21:56;7.43;;;6.32;;
10347;SDS011;5220;43.192;23.284;2023-04-24T13:24:24;7.38;;;6.32;;
10347;SDS011;5220;43.192;23.284;2023-04-24T13:26:51;6.00;;;5.53;;
10347;SDS011;5220;43.192;23.284;2023-04-24T13:29:18;7.30;;;5.97;;
10347;SDS011;5220;43.192;23.284;2023-04-24T13:31:46;7.18;;;6.43;;
10347;SDS011;5220;43.192;23.284;2023-04-24T13:34:15;6.60;;;5.97;;
10347;SDS011;5220;43.192;23.284;2023-04-24T13:36:42;7.55;;;6.28;;
10347;SDS011;5220;43.192;23.284;2023-04-24T13:39:09;6.63;;;5.90;;
10347;SDS011;5220;43.192;23.284;2023-04-24T13:41:36;6.68;;;6.10;;
10347;SDS011;5220;43.192;23.284;2023-04-24T13:44:04;7.55;;;5.70;;
10347;SDS011;5220;43.192;23.284;2023-04-24T13:46:32;13.02;;;8.63;;
10347;SDS011;5220;43.192;23.284;2023-04-24T13:48:59;7.07;;;6.38;;
10347;SDS011;5220;43.192;23.284;2023-04-24T13:51:28;7.00;;;6.30;;
10347;SDS011;5220;43.192;23.284;2023-04-24T13:53:55;6.25;;;5.55;;
10347;SDS011;5220;43.192;23.284;2023-04-24T13:56:22;8.32;;;6.85;;
10347;SDS011;5220;43.192;23.284;2023-04-24T13:58:49;6.97;;;6.32;;
10347;SDS011;5220;43.192;23.284;2023-04-24T14:01:16;6.28;;;5.68;;
10347;SDS011;5220;43.192;23.284;2023-04-24T14:03:43;8.27;;;6.80;;
10347;SDS011;5220;43.192;23.284;2023-04-24T14:06:09;9.68;;;6.60;;
10347;SDS011;5220;43.192;23.284;2023-04-24T14:08:38;6.88;;;6.28;;
10347;SDS011;5220;43.192;23.284;2023-04-24T14:11:05;10.77;;;8.38;;
10347;SDS011;5220;43.192;23.284;2023-04-24T14:13:32;20.90;;;15.10;;
10347;SDS011;5220;43.192;23.284;2023-04-24T14:15:59;9.80;;;7.25;;
10347;SDS011;5220;43.192;23.284;2023-04-24T14:18:26;7.40;;;6.70;;
10347;SDS011;5220;43.192;23.284;2023-04-24T14:20:53;7.50;;;6.47;;
10347;SDS011;5220;43.192;23.284;2023-04-24T14:23:20;9.57;;;8.07;;
10347;SDS011;5220;43.192;23.284;2023-04-24T14:25:48;7.80;;;7.10;;
10347;SDS011;5220;43.192;23.284;2023-04-24T14:28:17;9.23;;;7.43;;
10347;SDS011;5220;43.192;23.284;2023-04-24T14:30:45;7.07;;;6.38;;
10347;SDS011;5220;43.192;23.284;2023-04-24T14:33:13;8.15;;;6.78;;
10347;SDS011;5220;43.192;23.284;2023-04-24T14:35:40;6.07;;;5.50;;
10347;SDS011;5220;43.192;23.284;2023-04-24T14:38:08;7.22;;;6.47;;
10347;SDS011;5220;43.192;23.284;2023-04-24T14:40:35;7.82;;;5.97;;
10347;SDS011;5220;43.192;23.284;2023-04-24T14:43:04;6.35;;;5.72;;
10347;SDS011;5220;43.192;23.284;2023-04-24T14:45:31;6.88;;;6.10;;
10347;SDS011;5220;43.192;23.284;2023-04-24T14:47:58;6.63;;;5.97;;